createdAt,value
2022-09-02T00:02:57.381Z,18.70
2022-09-02T00:07:02.491Z,18.64
2022-09-02T00:11:07.434Z,18.61
2022-09-02T00:15:11.502Z,18.55
2022-09-02T00:19:15.796Z,18.46
2022-09-02T00:23:20.854Z,18.38
2022-09-02T00:27:24.444Z,18.26
2022-09-02T00:31:29.315Z,18.17
2022-09-02T00:35:34.125Z,18.05
2022-09-02T00:39:38.616Z,17.93
2022-09-02T00:43:45.267Z,17.84
2022-09-02T00:47:51.124Z,17.73
2022-09-02T00:51:58.986Z,17.62
2022-09-02T00:56:04.438Z,17.50
2022-09-02T01:00:11.854Z,17.43
2022-09-02T01:04:15.694Z,17.31
2022-09-02T01:08:26.080Z,17.22
2022-09-02T01:12:32.131Z,17.08
2022-09-02T01:16:42.172Z,17.02
2022-09-02T01:20:45.653Z,16.90
2022-09-02T01:24:51.078Z,16.83
2022-09-02T01:28:54.234Z,16.74
2022-09-02T01:32:57.790Z,16.66
2022-09-02T01:37:01.421Z,16.58
2022-09-02T01:41:06.590Z,16.49
2022-09-02T01:45:10.872Z,16.40
2022-09-02T01:49:14.922Z,16.30
2022-09-02T01:53:18.997Z,16.20
2022-09-02T01:57:25.120Z,16.07
2022-09-02T02:01:28.437Z,15.94
2022-09-02T02:05:34.074Z,15.81
2022-09-02T02:09:38.153Z,15.69
2022-09-02T02:13:43.406Z,15.58
2022-09-02T02:17:46.555Z,15.49
2022-09-02T02:21:50.362Z,15.40
2022-09-02T02:25:54.381Z,15.35
2022-09-02T02:29:59.454Z,15.31
2022-09-02T02:34:04.009Z,15.25
2022-09-02T02:38:07.651Z,15.19
2022-09-02T02:42:13.997Z,15.11
2022-09-02T02:46:19.290Z,15.03
2022-09-02T02:50:25.801Z,14.96
2022-09-02T02:54:34.917Z,14.89
2022-09-02T02:58:39.269Z,14.83
2022-09-02T03:02:44.446Z,14.76
2022-09-02T03:06:48.025Z,14.67
2022-09-02T03:10:54.917Z,14.59
2022-09-02T03:14:59.024Z,14.51
2022-09-02T03:19:04.284Z,14.42
2022-09-02T03:23:07.587Z,14.35
2022-09-02T03:27:11.867Z,14.27
2022-09-02T03:31:17.530Z,14.19
2022-09-02T03:35:23.959Z,14.13
2022-09-02T03:39:27.792Z,14.06
2022-09-02T03:43:31.567Z,14.00
2022-09-02T03:47:35.192Z,13.97
2022-09-02T03:51:42.371Z,13.94
2022-09-02T03:55:46.198Z,13.91
2022-09-02T03:59:50.126Z,13.90
2022-09-02T04:03:54.477Z,13.87
2022-09-02T04:07:59.190Z,13.85
2022-09-02T04:12:02.678Z,13.79
2022-09-02T04:16:10.469Z,13.74
2022-09-02T04:20:14.859Z,13.70
2022-09-02T04:24:19.853Z,13.69
2022-09-02T04:28:23.497Z,13.69
2022-09-02T04:32:27.249Z,13.69
2022-09-02T04:36:31.110Z,13.71
2022-09-02T04:40:36.197Z,13.75
2022-09-02T04:44:40.063Z,13.77
2022-09-02T04:48:44.010Z,13.80
2022-09-02T04:52:47.703Z,13.85
2022-09-02T04:56:52.860Z,13.92
2022-09-02T05:00:56.375Z,13.97
2022-09-02T05:04:59.869Z,14.02
2022-09-02T05:09:04.047Z,14.08
2022-09-02T05:13:09.369Z,14.14
2022-09-02T05:17:14.797Z,14.20
2022-09-02T05:21:18.773Z,14.28
2022-09-02T05:25:22.588Z,14.34
2022-09-02T05:29:27.543Z,14.43
2022-09-02T05:33:31.239Z,14.50
2022-09-02T05:37:37.360Z,14.59
2022-09-02T05:41:40.924Z,14.69
2022-09-02T05:45:45.633Z,14.78
2022-09-02T05:49:49.224Z,14.89
2022-09-02T05:53:55.070Z,15.00
2022-09-02T05:57:58.799Z,15.10
2022-09-02T06:02:03.407Z,15.23
2022-09-02T06:06:07.062Z,15.34
2022-09-02T06:10:10.869Z,15.48
2022-09-02T06:14:15.588Z,15.60
2022-09-02T06:18:20.358Z,15.75
2022-09-02T06:22:23.970Z,15.89
2022-09-02T06:26:27.986Z,16.03
2022-09-02T06:30:31.320Z,16.20
2022-09-02T06:34:36.365Z,16.35
2022-09-02T06:38:45.635Z,16.49
2022-09-02T06:42:50.468Z,16.65
2022-09-02T06:46:56.837Z,16.83
2022-09-02T06:51:04.158Z,16.98
2022-09-02T06:55:08.243Z,17.19
2022-09-02T06:59:12.594Z,17.39
2022-09-02T07:03:33.145Z,17.62
2022-09-02T07:07:39.254Z,17.91
2022-09-02T07:11:42.958Z,18.21
2022-09-02T07:15:46.188Z,18.55
2022-09-02T07:19:49.565Z,18.93
2022-09-02T07:23:54.690Z,19.37
2022-09-02T07:27:57.958Z,19.77
2022-09-02T07:32:01.499Z,20.18
2022-09-02T07:36:06.324Z,20.62
2022-09-02T07:40:19.610Z,21.11
2022-09-02T07:44:23.572Z,21.58
2022-09-02T07:48:27.455Z,22.02
2022-09-02T07:52:30.512Z,22.44
2022-09-02T07:56:35.549Z,22.88
2022-09-02T08:00:40.076Z,23.31
2022-09-02T08:04:44.402Z,23.75
2022-09-02T08:08:48.216Z,24.13
2022-09-02T08:16:57.784Z,24.89
2022-09-02T08:21:01.055Z,25.27
2022-09-02T08:25:04.819Z,25.62
2022-09-02T08:29:10.160Z,25.91
2022-09-02T08:33:15.212Z,26.22
2022-09-02T08:37:19.737Z,26.51
2022-09-02T08:41:24.724Z,26.79
2022-09-02T08:45:33.058Z,27.00
2022-09-02T08:49:43.677Z,27.17
2022-09-02T08:53:52.712Z,27.40
2022-09-02T08:57:57.402Z,27.52
2022-09-02T09:02:07.145Z,27.71
2022-09-02T09:06:21.842Z,27.86
2022-09-02T09:10:31.029Z,28.04
2022-09-02T09:14:41.861Z,28.11
2022-09-02T09:18:56.831Z,28.21
2022-09-02T09:23:04.629Z,28.24
2022-09-02T09:27:13.932Z,28.29
2022-09-02T09:31:20.243Z,28.38
2022-09-02T09:35:24.999Z,28.52
2022-09-02T09:39:31.500Z,28.74
2022-09-02T09:43:35.029Z,28.96
2022-09-02T09:47:38.598Z,29.10
2022-09-02T09:51:55.422Z,29.21
2022-09-02T09:56:06.047Z,29.33
2022-09-02T10:00:16.925Z,29.44
2022-09-02T10:04:42.766Z,29.49
2022-09-02T10:08:54.702Z,29.45
2022-09-02T10:13:03.036Z,29.30
2022-09-02T10:17:29.213Z,29.18
2022-09-02T10:21:50.182Z,29.22
2022-09-02T10:26:07.775Z,29.31
2022-09-02T10:30:21.122Z,29.35
2022-09-02T10:34:32.440Z,29.44
2022-09-02T10:38:41.490Z,29.51
2022-09-02T10:43:06.300Z,29.54
2022-09-02T10:47:16.811Z,29.59
2022-09-02T10:51:29.535Z,29.66
2022-09-02T10:55:43.204Z,29.75
2022-09-02T10:59:55.232Z,29.82
2022-09-02T11:04:06.907Z,29.91
2022-09-02T11:08:14.529Z,29.94
2022-09-02T11:12:22.752Z,29.85
2022-09-02T11:16:32.624Z,29.82
2022-09-02T11:20:43.486Z,29.81
2022-09-02T11:24:53.886Z,29.89
2022-09-02T11:29:06.083Z,29.99
2022-09-02T11:33:17.888Z,30.01
2022-09-02T11:37:32.640Z,30.00
2022-09-02T11:41:56.827Z,29.99
2022-09-02T11:46:21.745Z,30.00
2022-09-02T11:50:42.102Z,30.02
2022-09-02T11:54:51.186Z,30.09
2022-09-02T11:58:54.990Z,30.18
2022-09-02T12:03:37.749Z,30.23
2022-09-02T12:07:48.624Z,30.07
2022-09-02T12:11:55.336Z,30.05
2022-09-02T12:16:32.017Z,30.00
2022-09-02T12:21:18.609Z,29.96
2022-09-02T12:25:49.608Z,30.07
2022-09-02T12:29:56.800Z,30.12
2022-09-02T12:34:03.284Z,30.06
2022-09-02T12:38:30.496Z,30.05
2022-09-02T12:42:34.884Z,30.01
2022-09-02T12:47:01.671Z,30.01
2022-09-02T12:51:05.489Z,30.03
2022-09-02T12:55:17.212Z,30.09
2022-09-02T12:59:30.524Z,30.10
2022-09-02T13:03:58.840Z,30.20
2022-09-02T13:08:48.550Z,30.27
2022-09-02T13:13:10.033Z,30.36
2022-09-02T13:17:36.059Z,30.48
2022-09-02T13:22:14.135Z,30.53
2022-09-02T13:26:48.937Z,30.51
2022-09-02T13:31:09.612Z,30.55
2022-09-02T13:35:24.368Z,30.52
2022-09-02T13:39:29.223Z,30.46
2022-09-02T13:43:34.423Z,30.47
2022-09-02T13:47:38.831Z,30.48
2022-09-02T13:51:45.593Z,30.48
2022-09-02T13:55:51.536Z,30.47
2022-09-02T13:59:58.086Z,30.34
2022-09-02T14:08:15.648Z,30.34
2022-09-02T14:16:34.310Z,30.65
2022-09-02T14:20:39.603Z,30.78
2022-09-02T14:24:43.234Z,30.87
2022-09-02T14:28:53.554Z,30.84
2022-09-02T14:33:19.338Z,30.63
2022-09-02T14:37:24.895Z,30.38
2022-09-02T14:41:31.544Z,30.19
2022-09-02T14:45:39.406Z,30.03
2022-09-02T14:49:50.924Z,29.88
2022-09-02T14:53:55.738Z,29.69
2022-09-02T14:58:04.014Z,29.53
2022-09-02T15:02:07.282Z,29.40
2022-09-02T15:06:15.242Z,29.33
2022-09-02T15:10:19.563Z,29.29
2022-09-02T15:14:23.087Z,29.22
2022-09-02T15:18:26.981Z,29.09
2022-09-02T15:22:31.637Z,29.00
2022-09-02T15:26:35.096Z,28.87
2022-09-02T15:30:40.245Z,28.81
2022-09-02T15:34:43.964Z,28.66
2022-09-02T15:38:48.652Z,28.58
2022-09-02T15:42:52.309Z,28.46
2022-09-02T15:46:55.771Z,28.23
2022-09-02T15:50:58.977Z,28.00
2022-09-02T15:55:03.717Z,27.78
2022-09-02T15:59:10.642Z,27.56
2022-09-02T16:03:14.207Z,27.37
2022-09-02T16:07:17.434Z,27.21
2022-09-02T16:11:22.386Z,27.10
2022-09-02T16:15:25.788Z,26.95
2022-09-02T16:19:30.649Z,26.78
2022-09-02T16:23:34.467Z,26.62
2022-09-02T16:27:55.561Z,26.47
2022-09-02T16:32:23.642Z,26.34
2022-09-02T16:36:29.094Z,26.21
2022-09-02T16:40:36.622Z,26.10
2022-09-02T16:44:42.442Z,25.91
2022-09-02T16:48:45.926Z,25.67
2022-09-02T16:52:49.729Z,25.43
2022-09-02T16:56:52.773Z,25.18
2022-09-02T17:00:57.874Z,24.92
2022-09-02T17:05:01.518Z,24.68
2022-09-02T17:09:05.307Z,24.44
2022-09-02T17:13:09.183Z,24.24
2022-09-02T17:17:15.661Z,24.04
2022-09-02T17:21:23.784Z,23.85
2022-09-02T17:25:27.293Z,23.65
2022-09-02T17:33:58.302Z,23.20
2022-09-02T17:38:02.031Z,22.95
2022-09-02T17:42:06.721Z,22.74
2022-09-02T17:46:11.106Z,22.50
2022-09-02T17:50:18.075Z,22.29
2022-09-02T17:54:22.184Z,22.08
2022-09-02T17:58:26.537Z,21.90
2022-09-02T18:02:55.734Z,21.71
2022-09-02T18:07:06.748Z,21.51
2022-09-02T18:11:10.481Z,21.32
2022-09-02T18:15:19.047Z,21.14
2022-09-02T18:19:39.262Z,20.96
2022-09-02T18:24:00.625Z,20.77
2022-09-02T18:28:14.808Z,20.60
2022-09-02T18:32:29.722Z,20.42
2022-09-02T18:36:44.023Z,20.25
2022-09-02T18:41:07.142Z,20.10
2022-09-02T18:45:21.507Z,19.97
2022-09-02T18:49:27.502Z,19.85
2022-09-02T18:53:35.997Z,19.75
2022-09-02T18:57:56.387Z,19.65
2022-09-02T19:02:08.502Z,19.55
2022-09-02T19:06:18.797Z,19.43
2022-09-02T19:10:23.617Z,19.29
2022-09-02T19:14:31.471Z,19.17
2022-09-02T19:18:34.557Z,19.04
2022-09-02T19:22:41.486Z,18.91
2022-09-02T19:26:47.653Z,18.79
2022-09-02T19:30:55.462Z,18.65
2022-09-02T19:35:01.418Z,18.53
2022-09-02T19:39:04.878Z,18.47
2022-09-02T19:43:10.333Z,18.40
2022-09-02T19:51:38.968Z,18.29
2022-09-02T19:55:43.738Z,18.27
2022-09-02T19:59:46.896Z,18.25
2022-09-02T20:03:52.675Z,18.22
2022-09-02T20:07:56.616Z,18.19
2022-09-02T20:12:00.301Z,18.18
2022-09-02T20:20:19.557Z,18.01
2022-09-02T20:24:27.246Z,18.00
2022-09-02T20:28:35.332Z,18.01
2022-09-02T20:32:47.901Z,17.89
2022-09-02T20:37:00.301Z,17.89
2022-09-02T20:41:11.465Z,17.81
2022-09-02T20:45:20.901Z,17.74
2022-09-02T20:49:54.655Z,17.67
2022-09-02T20:54:14.153Z,17.59
2022-09-02T20:58:28.381Z,17.52
2022-09-02T21:02:37.126Z,17.39
2022-09-02T21:06:45.165Z,17.34
2022-09-02T21:10:53.980Z,17.24
2022-09-02T21:15:03.805Z,17.01
2022-09-02T21:19:15.022Z,17.04
2022-09-02T21:23:27.416Z,16.96
2022-09-02T21:27:36.882Z,16.86
2022-09-02T21:31:43.942Z,16.78
2022-09-02T21:35:50.559Z,16.72
2022-09-02T21:39:58.613Z,16.66
2022-09-02T21:44:11.824Z,16.60
2022-09-02T21:48:34.633Z,16.54
2022-09-02T21:52:59.891Z,16.48
2022-09-02T21:57:17.068Z,16.42
2022-09-02T22:01:44.636Z,16.39
2022-09-02T22:05:54.734Z,16.35
2022-09-02T22:10:09.607Z,16.31
2022-09-02T22:14:16.284Z,16.26
2022-09-02T22:18:30.756Z,16.20
2022-09-02T22:22:41.172Z,16.12
2022-09-02T22:26:50.574Z,16.08
2022-09-02T22:31:00.579Z,16.05
2022-09-02T22:35:10.515Z,16.01
2022-09-02T22:39:16.936Z,15.94
2022-09-02T22:43:25.500Z,15.92
2022-09-02T22:47:49.460Z,15.88
2022-09-02T22:52:21.916Z,15.84
2022-09-02T22:56:35.411Z,15.80
2022-09-02T23:00:47.937Z,15.75
2022-09-02T23:05:37.768Z,15.73
2022-09-02T23:09:44.465Z,15.69
2022-09-02T23:13:59.212Z,15.68
2022-09-02T23:18:13.704Z,15.66
2022-09-02T23:22:25.406Z,15.64
2022-09-02T23:26:41.655Z,15.65
2022-09-02T23:30:54.464Z,15.60
2022-09-02T23:35:13.345Z,15.63
2022-09-02T23:39:44.922Z,15.61
2022-09-02T23:43:49.738Z,15.60
2022-09-02T23:48:14.291Z,15.57
2022-09-02T23:52:26.867Z,15.56
2022-09-02T23:56:46.610Z,15.55
